Time;durP1;ratioP1;P1;durP2;ratioP2;P2;SDS_P1;SDS_P2;PMS_P1;PMS_P2;Temp;Humidity;BMP_temperature;BMP_pressure;BME280_temperature;BME280_humidity;BME280_pressure;Samples;Min_cycle;Max_cycle;Signal;HPM_P1;HPM_P2
2022/03/25 00:00:33;;;;;;;34.25;13.45;;;;;;;10.24;43.90;101443.28;5043932;28;20041;-79
2022/03/25 00:02:58;;;;;;;30.52;12.77;;;;;;;10.07;45.01;101445.22;5041895;28;20160;-79
2022/03/25 00:05:23;;;;;;;31.60;14.07;;;;;;;9.83;47.21;101445.34;5041969;28;20079;-79
2022/03/25 00:07:49;;;;;;;30.52;13.07;;;;;;;10.40;46.33;101445.88;5044018;28;20376;-79
2022/03/25 00:10:15;;;;;;;32.60;13.85;;;;;;;9.85;47.96;101446.84;5041155;28;20465;-78
2022/03/25 00:12:40;;;;;;;33.78;12.73;;;;;;;9.69;46.97;101441.50;5038988;28;20448;-78
2022/03/25 00:15:06;;;;;;;31.13;12.35;;;;;;;9.41;48.08;101441.13;5038556;28;20041;-79
2022/03/25 00:17:32;;;;;;;35.83;13.25;;;;;;;9.37;47.80;101440.63;5038852;28;20029;-78
2022/03/25 00:19:57;;;;;;;34.45;13.27;;;;;;;9.32;47.58;101440.28;5037857;28;20108;-79
2022/03/25 00:22:22;;;;;;;30.10;11.57;;;;;;;9.45;46.93;101445.16;5038921;28;20033;-78
2022/03/25 00:24:48;;;;;;;35.93;12.53;;;;;;;9.41;47.42;101441.13;5039858;28;20034;-78
2022/03/25 00:27:14;;;;;;;28.65;11.90;;;;;;;9.39;47.45;101448.53;5043063;28;20037;-78
2022/03/25 00:29:40;;;;;;;36.22;14.35;;;;;;;9.35;47.73;101445.31;5043810;28;20057;-78
2022/03/25 00:32:06;;;;;;;32.80;12.63;;;;;;;9.33;47.99;101450.03;5043273;28;20022;-79
2022/03/25 00:34:31;;;;;;;30.73;11.93;;;;;;;9.31;47.95;101449.41;5042804;28;20033;-79
2022/03/25 00:36:57;;;;;;;29.05;12.68;;;;;;;9.25;48.46;101450.06;5044192;28;20448;-78
2022/03/25 00:39:22;;;;;;;32.63;14.23;;;;;;;9.23;48.31;101448.56;5044687;28;20034;-79
2022/03/25 00:41:47;;;;;;;33.57;13.30;;;;;;;9.26;48.14;101451.75;5043450;28;20546;-80
2022/03/25 00:44:13;;;;;;;29.67;12.70;;;;;;;9.26;48.17;101442.84;5044529;28;20319;-78
2022/03/25 00:46:39;;;;;;;32.95;12.85;;;;;;;9.26;48.33;101443.69;5043039;28;20260;-78
2022/03/25 00:49:04;;;;;;;;;;;;;;;9.22;49.13;101442.34;5041282;28;20391;-78
2022/03/25 00:51:30;;;;;;;29.10;12.20;;;;;;;9.21;49.27;101435.28;5039183;28;19917;-78
2022/03/25 00:53:56;;;;;;;32.67;12.60;;;;;;;9.18;49.12;101440.16;5038584;28;20025;-79
2022/03/25 00:56:22;;;;;;;33.67;13.38;;;;;;;9.18;49.59;101432.09;5038644;28;20048;-79
2022/03/25 00:58:47;;;;;;;30.67;12.80;;;;;;;9.19;49.39;101433.78;5039609;28;20030;-78
2022/03/25 01:01:12;;;;;;;30.67;12.83;;;;;;;9.14;49.48;101436.97;5039091;28;20025;-78
2022/03/25 01:03:38;;;;;;;31.20;13.03;;;;;;;9.11;50.05;101431.94;5038239;28;20053;-79
2022/03/25 01:06:03;;;;;;;28.70;12.23;;;;;;;9.11;49.53;101434.63;5038941;28;20792;-78
2022/03/25 01:08:29;;;;;;;31.73;12.00;;;;;;;9.08;50.06;101429.59;5037580;28;20264;-79
2022/03/25 01:10:55;;;;;;;30.73;13.10;;;;;;;9.04;49.90;101436.31;5037460;28;20457;-78
2022/03/25 01:13:20;;;;;;;33.17;12.82;;;;;;;9.03;49.41;101432.78;5037360;28;20030;-79
2022/03/25 01:15:46;;;;;;;32.92;12.25;;;;;;;9.02;50.52;101430.28;5037359;28;20041;-80
2022/03/25 01:18:11;;;;;;;30.97;12.67;;;;;;;9.04;50.28;101434.47;5037897;28;20117;-79
2022/03/25 01:20:37;;;;;;;33.33;12.77;;;;;;;9.01;50.68;101433.97;5036937;28;20051;-79
2022/03/25 01:23:03;;;;;;;32.90;13.02;;;;;;;8.88;51.22;101437.19;5037448;28;20087;-79
2022/03/25 01:25:28;;;;;;;31.58;12.02;;;;;;;8.89;51.66;101444.25;5037255;28;20037;-78
2022/03/25 01:27:54;;;;;;;33.47;12.17;;;;;;;8.85;51.53;101434.81;5036609;28;20041;-78
2022/03/25 01:30:19;;;;;;;30.98;12.63;;;;;;;8.81;51.89;101438.84;5033463;28;20027;-78
2022/03/25 01:32:44;;;;;;;29.17;12.70;;;;;;;8.77;51.90;101436.69;5035028;28;20068;-78
2022/03/25 01:35:10;;;;;;;32.73;12.73;;;;;;;8.99;50.17;101439.50;5035472;28;20341;-77
2022/03/25 01:37:36;;;;;;;33.53;12.93;;;;;;;8.92;50.57;101440.38;5034967;28;20112;-77
2022/03/25 01:40:07;;;;;;;29.25;12.50;;;;;;;8.97;50.65;101436.16;5034922;28;20030;-79
2022/03/25 01:42:34;;;;;;;29.38;12.85;;;;;;;8.93;50.92;101439.38;5036959;28;20117;-79
2022/03/25 01:45:00;;;;;;;30.15;12.25;;;;;;;8.88;51.09;101433.66;5036909;28;20040;-79
2022/03/25 01:47:29;;;;;;;29.20;12.45;;;;;;;8.97;50.83;101425.41;5036924;28;20033;-78
2022/03/25 01:49:56;;;;;;;31.48;12.85;;;;;;;8.91;51.28;101434.16;5036261;28;20033;-78
2022/03/25 01:52:21;;;;;;;;;;;;;;;8.97;50.43;101428.09;5036178;28;20092;-78
2022/03/25 01:54:47;;;;;;;29.20;12.77;;;;;;;8.91;51.25;101433.31;5036014;28;19948;-78
2022/03/25 01:57:12;;;;;;;30.57;12.80;;;;;;;8.82;51.15;101431.63;5035987;28;20037;-78
2022/03/25 01:59:38;;;;;;;30.65;12.18;;;;;;;8.79;51.61;101426.59;5036525;28;20456;-78
2022/03/25 02:04:38;;;;;;;29.52;11.90;;;;;;;8.68;52.85;101428.63;5426098;22;20076;-78
2022/03/25 02:07:04;;;;;;;33.97;12.33;;;;;;;8.70;52.20;101431.97;5056301;28;20462;-79
2022/03/25 02:09:30;;;;;;;;;;;;;;;8.81;51.21;101427.25;5057437;28;20029;-78
2022/03/25 02:11:56;;;;;;;29.15;12.48;;;;;;;8.63;52.91;101425.59;5057142;28;19916;-80
2022/03/25 02:14:22;;;;;;;33.27;11.83;;;;;;;8.66;52.24;101438.69;5056086;28;20448;-78
2022/03/25 02:16:49;;;;;;;28.08;12.52;;;;;;;8.77;51.56;101432.16;5056072;28;20075;-79
2022/03/25 02:19:19;;;;;;;36.15;13.10;;;;;;;8.63;52.77;101435.50;5055914;28;20043;-78
2022/03/25 02:21:47;;;;;;;31.30;12.50;;;;;;;8.56;52.48;101432.66;5056319;28;20087;-79
2022/03/25 02:24:14;;;;;;;30.65;12.85;;;;;;;8.56;52.26;101435.34;5057721;28;20024;-80
2022/03/25 02:26:40;;;;;;;30.92;12.32;;;;;;;8.52;52.26;101428.63;5056497;28;20029;-81
2022/03/25 02:29:07;;;;;;;28.88;11.90;;;;;;;8.51;51.86;101432.31;5038929;28;20025;-80
2022/03/25 02:31:33;;;;;;;32.35;12.25;;;;;;;8.48;51.94;101432.63;5056638;28;20056;-80
2022/03/25 02:34:05;;;;;;;29.67;11.88;;;;;;;8.48;52.47;101438.00;5055792;28;20040;-81
2022/03/25 02:36:42;;;;;;;32.20;12.50;;;;;;;8.43;52.22;101423.38;5055984;28;20033;-79
2022/03/25 02:39:09;;;;;;;30.55;12.63;;;;;;;8.37;52.61;101426.75;5055394;28;20120;-79
2022/03/25 02:41:35;;;;;;;29.70;11.88;;;;;;;8.34;52.70;101430.63;5055295;28;20494;-79
2022/03/25 02:44:00;;;;;;;29.77;12.13;;;;;;;8.34;52.89;101433.28;5037631;28;20028;-80
2022/03/25 02:46:26;;;;;;;32.05;11.95;;;;;;;8.27;53.14;101430.38;5055535;28;20593;-79
2022/03/25 02:48:52;;;;;;;28.17;12.10;;;;;;;8.16;53.45;101435.25;5054940;28;20037;-79
2022/03/25 02:51:18;;;;;;;30.05;12.35;;;;;;;8.11;53.93;101433.03;5055029;28;20103;-79
2022/03/25 02:53:43;;;;;;;26.13;12.02;;;;;;;8.14;53.75;101435.41;5055442;28;20037;-79
2022/03/25 02:56:08;;;;;;;34.03;12.40;;;;;;;8.13;52.79;101435.56;5054175;28;20550;-80
2022/03/25 02:58:34;;;;;;;30.03;12.33;;;;;;;8.16;52.19;101444.13;5054628;28;20036;-81
2022/03/25 03:00:59;;;;;;;29.03;11.63;;;;;;;8.11;52.48;101430.34;5054836;28;20040;-80
2022/03/25 03:03:24;;;;;;;29.07;12.40;;;;;;;8.11;52.06;101440.25;5036900;28;20029;-80
2022/03/25 03:05:50;;;;;;;29.77;12.50;;;;;;;8.10;52.36;101435.88;5054608;28;20756;-80
2022/03/25 03:08:16;;;;;;;30.13;11.30;;;;;;;8.00;52.15;101442.25;5054955;28;20268;-79
2022/03/25 03:10:42;;;;;;;28.00;11.80;;;;;;;8.01;52.86;101443.09;5054810;28;20310;-79
2022/03/25 03:13:09;;;;;;;27.73;10.38;;;;;;;8.02;53.41;101447.47;5055074;28;20044;-79
2022/03/25 03:15:34;;;;;;;25.65;10.80;;;;;;;7.96;53.01;101448.94;5054739;28;20033;-80
2022/03/25 03:18:00;;;;;;;29.27;11.15;;;;;;;7.98;53.71;101446.09;5056750;28;20478;-79
2022/03/25 03:20:26;;;;;;;27.47;11.53;;;;;;;7.89;53.36;101447.91;5056899;28;20055;-80
2022/03/25 03:22:51;;;;;;;29.55;11.25;;;;;;;7.85;54.06;101449.25;5057123;28;20255;-80
2022/03/25 03:25:17;;;;;;;29.13;12.00;;;;;;;7.87;53.53;101449.94;5058487;28;20059;-80
2022/03/25 03:27:42;;;;;;;26.93;10.93;;;;;;;7.79;54.12;101452.56;5059800;28;20062;-80
2022/03/25 03:30:11;;;;;;;27.83;10.27;;;;;;;7.75;54.28;101453.88;5058855;28;20037;-79
2022/03/25 03:32:37;;;;;;;28.13;10.80;;;;;;;7.83;54.52;101445.88;5042666;28;20424;-81
2022/03/25 03:35:03;;;;;;;27.05;12.18;;;;;;;7.77;54.62;101456.41;5061219;28;20047;-79
2022/03/25 03:37:29;;;;;;;25.58;11.13;;;;;;;7.69;55.69;101456.41;5066531;28;20044;-79
2022/03/25 03:39:54;;;;;;;28.48;11.73;;;;;;;7.67;55.44;101451.19;5065863;28;20037;-80
2022/03/25 03:42:20;;;;;;;32.40;12.40;;;;;;;7.70;55.06;101453.56;5063268;28;20037;-80
2022/03/25 03:44:46;;;;;;;29.63;11.48;;;;;;;7.59;55.41;101456.50;5062392;28;20033;-80
2022/03/25 03:47:12;;;;;;;28.55;12.80;;;;;;;7.54;55.96;101453.44;5061537;28;20052;-79
2022/03/25 03:49:39;;;;;;;25.40;11.05;;;;;;;7.47;55.48;101452.44;5058312;28;20025;-80
2022/03/25 03:52:05;;;;;;;33.05;12.65;;;;;;;7.57;54.85;101447.78;5059232;28;20033;-80
2022/03/25 03:54:32;;;;;;;27.17;10.85;;;;;;;7.52;55.77;101450.97;5059341;28;20086;-80
2022/03/25 03:56:58;;;;;;;24.95;11.43;;;;;;;7.47;55.68;101452.44;5058558;28;20082;-79
2022/03/25 03:59:23;;;;;;;32.15;11.27;;;;;;;7.50;54.99;101449.44;5057976;28;20045;-81
2022/03/25 04:01:48;;;;;;;29.33;11.03;;;;;;;7.45;55.50;101447.22;5058727;28;20171;-79
2022/03/25 04:04:14;;;;;;;27.17;10.63;;;;;;;7.46;55.38;101446.22;5040355;28;20079;-79
2022/03/25 04:06:39;;;;;;;29.83;11.70;;;;;;;7.44;56.08;101453.59;5058793;28;20044;-80
2022/03/25 04:09:04;;;;;;;29.52;11.63;;;;;;;7.34;56.41;101454.72;5058290;28;20024;-80
2022/03/25 04:11:30;;;;;;;27.80;11.47;;;;;;;7.14;57.21;101457.59;5058236;28;20029;-80
2022/03/25 04:13:55;;;;;;;33.72;12.85;;;;;;;7.10;57.26;101452.69;5058207;28;20029;-80
2022/03/25 04:16:22;;;;;;;37.63;10.73;;;;;;;7.07;58.77;101459.22;5058018;28;20506;-80
2022/03/25 04:18:47;;;;;;;;;;;;;;;6.97;59.44;101456.66;5040824;28;20028;-80
2022/03/25 04:21:12;;;;;;;30.30;12.52;;;;;;;6.84;59.37;101458.88;5058123;28;19909;-80
2022/03/25 04:23:38;;;;;;;26.07;12.17;;;;;;;6.87;59.42;101449.69;5057634;28;20029;-79
2022/03/25 04:26:03;;;;;;;30.97;11.07;;;;;;;6.90;58.93;101460.09;5057367;28;20025;-77
2022/03/25 04:28:29;;;;;;;25.92;11.07;;;;;;;6.87;59.13;101461.25;5056666;28;20268;-78
2022/03/25 04:30:54;;;;;;;30.85;13.35;;;;;;;6.84;58.23;101456.19;5056296;28;20029;-77
2022/03/25 04:33:20;;;;;;;29.07;11.17;;;;;;;7.13;57.29;101461.28;5056542;28;20032;-78
2022/03/25 04:35:45;;;;;;;30.02;12.15;;;;;;;7.10;56.63;101461.59;5038794;28;20029;-77
2022/03/25 04:38:11;;;;;;;28.42;11.30;;;;;;;7.10;57.38;101466.94;5055910;28;20036;-77
2022/03/25 04:40:37;;;;;;;30.27;12.57;;;;;;;7.10;56.81;101466.94;5038085;28;20056;-79
2022/03/25 04:43:03;;;;;;;32.03;11.23;;;;;;;7.03;57.80;101473.91;5055697;28;20155;-77
2022/03/25 04:45:29;;;;;;;;;;;;;;;6.99;57.44;101467.19;5055521;28;20390;-77
2022/03/25 04:47:55;;;;;;;33.95;11.63;;;;;;;6.77;57.43;101471.22;5054979;28;19919;-77
2022/03/25 04:50:21;;;;;;;30.92;12.07;;;;;;;6.75;58.02;101469.69;5054881;28;20028;-78
2022/03/25 04:52:47;;;;;;;27.60;11.38;;;;;;;6.66;58.53;101459.88;5055423;28;20111;-77
2022/03/25 04:55:13;;;;;;;30.35;12.70;;;;;;;6.56;58.69;101474.22;5055420;28;20122;-80
2022/03/25 04:57:39;;;;;;;33.72;12.98;;;;;;;6.56;59.19;101471.53;5055993;28;20040;-76
2022/03/25 05:00:06;;;;;;;27.85;11.75;;;;;;;6.61;59.13;101466.56;5056521;28;20035;-78
2022/03/25 05:02:31;;;;;;;31.15;11.75;;;;;;;6.58;58.54;101471.38;5055237;28;20028;-77
2022/03/25 05:04:58;;;;;;;33.73;12.73;;;;;;;6.54;58.91;101467.31;5055043;28;20103;-76
2022/03/25 05:07:23;;;;;;;30.58;13.38;;;;;;;6.49;59.47;101469.59;5055311;28;20374;-77
2022/03/25 05:09:49;;;;;;;30.03;13.07;;;;;;;6.36;59.32;101472.66;5055505;28;20104;-77
2022/03/25 05:12:15;;;;;;;;;;;;;;;6.31;59.89;101480.31;5037636;28;20035;-77
2022/03/25 05:14:40;;;;;;;28.08;12.23;;;;;;;6.27;60.92;101477.06;5055043;28;19908;-77
2022/03/25 05:17:06;;;;;;;31.27;13.13;;;;;;;6.19;60.85;101477.00;5055235;28;20028;-77
2022/03/25 05:19:32;;;;;;;29.77;12.43;;;;;;;6.29;60.26;101482.28;5055370;28;20033;-76
2022/03/25 05:21:58;;;;;;;32.80;13.05;;;;;;;6.34;60.81;101477.31;5054939;28;20025;-76
2022/03/25 05:24:23;;;;;;;28.17;11.20;;;;;;;6.38;60.90;101488.56;5036776;28;20056;-76
2022/03/25 05:26:48;;;;;;;36.53;12.50;;;;;;;6.32;61.53;101484.66;5054370;28;20032;-76
2022/03/25 05:29:14;;;;;;;31.30;12.43;;;;;;;6.34;60.52;101484.50;5054661;28;20044;-77
2022/03/25 05:31:39;;;;;;;31.53;12.40;;;;;;;6.27;60.43;101474.41;5054704;28;20321;-77
2022/03/25 05:34:06;;;;;;;32.58;12.07;;;;;;;6.21;60.72;101477.69;5054644;28;20116;-77
2022/03/25 05:36:32;;;;;;;35.15;13.95;;;;;;;6.24;60.64;101485.44;5054657;28;20479;-78
2022/03/25 05:38:58;;;;;;;36.70;13.43;;;;;;;6.20;60.72;101488.56;5036755;28;20029;-76
2022/03/25 05:41:24;;;;;;;38.85;13.38;;;;;;;6.30;60.10;101483.97;5054590;28;20040;-76
2022/03/25 05:43:50;;;;;;;32.75;13.27;;;;;;;6.20;59.99;101483.19;5054443;28;20025;-76
2022/03/25 05:46:16;;;;;;;31.13;13.15;;;;;;;6.34;61.00;101490.72;5054596;28;20068;-77
2022/03/25 05:48:42;;;;;;;31.27;12.80;;;;;;;6.27;60.59;101486.94;5054814;28;20119;-77
2022/03/25 05:51:07;;;;;;;32.53;12.47;;;;;;;6.25;61.25;101495.16;5055083;28;20141;-78
2022/03/25 05:53:32;;;;;;;29.17;13.10;;;;;;;6.26;60.77;101491.47;5055123;28;20033;-78
2022/03/25 05:55:59;;;;;;;39.53;12.87;;;;;;;6.22;61.21;101492.78;5055201;28;20037;-77
2022/03/25 05:58:25;;;;;;;43.63;13.38;;;;;;;6.28;61.02;101496.66;5054933;28;20075;-78
2022/03/25 06:00:50;;;;;;;32.17;12.80;;;;;;;6.28;60.93;101496.66;5054832;28;20036;-77
2022/03/25 06:03:15;;;;;;;32.97;13.97;;;;;;;6.34;60.52;101495.22;5055037;28;20028;-78
2022/03/25 06:05:41;;;;;;;30.67;12.47;;;;;;;6.38;60.25;101497.44;5054949;28;20033;-78
2022/03/25 06:08:07;;;;;;;32.77;12.47;;;;;;;6.48;61.03;101500.88;5053709;28;20032;-78
2022/03/25 06:10:34;;;;;;;32.05;13.10;;;;;;;6.53;61.39;101505.78;5053676;28;20490;-76
2022/03/25 06:13:00;;;;;;;30.27;12.43;;;;;;;6.53;60.81;101495.94;5053276;28;20029;-77
2022/03/25 06:15:25;;;;;;;32.67;12.90;;;;;;;6.66;60.73;101508.09;5036570;28;20083;-78
2022/03/25 06:17:51;;;;;;;30.10;12.90;;;;;;;6.71;60.65;101503.97;5056100;28;20325;-79
2022/03/25 06:20:24;;;;;;;32.40;13.73;;;;;;;6.79;60.12;101503.22;5056936;28;20116;-77
2022/03/25 06:22:50;;;;;;;31.40;13.35;;;;;;;6.70;60.16;101504.97;5056007;28;20057;-77
2022/03/25 06:25:16;;;;;;;30.63;12.38;;;;;;;6.93;59.05;101500.81;5056513;28;20032;-77
2022/03/25 06:27:51;;;;;;;32.17;12.85;;;;;;;6.92;59.30;101506.31;5055990;28;20044;-77
2022/03/25 06:30:18;;;;;;;35.13;13.85;;;;;;;6.82;59.45;101510.91;5058922;28;20486;-78
2022/03/25 06:32:44;;;;;;;30.70;13.32;;;;;;;6.89;59.14;101512.00;5055332;28;20032;-77
2022/03/25 06:35:09;;;;;;;33.80;14.30;;;;;;;6.93;59.63;101511.53;5053736;28;20410;-79
2022/03/25 06:37:37;;;;;;;33.50;12.80;;;;;;;7.06;58.68;101515.66;5054087;28;20482;-77
2022/03/25 06:40:06;;;;;;;36.17;13.52;;;;;;;7.12;58.75;101512.34;5036098;28;20130;-77
2022/03/25 06:42:31;;;;;;;35.80;12.77;;;;;;;7.15;58.83;101512.03;5053319;28;20099;-77
2022/03/25 06:44:57;;;;;;;32.10;13.27;;;;;;;7.29;59.46;101515.00;5052966;28;20421;-79
2022/03/25 06:47:22;;;;;;;30.20;12.80;;;;;;;7.34;59.06;101514.53;5053175;28;20065;-77
2022/03/25 06:49:48;;;;;;;30.77;11.77;;;;;;;7.59;58.49;101505.63;5053751;28;20116;-77
2022/03/25 06:52:13;;;;;;;29.45;13.18;;;;;;;7.61;58.96;101511.66;5053130;28;20029;-78
2022/03/25 06:54:39;;;;;;;30.90;12.88;;;;;;;7.59;57.49;101510.16;5035323;28;20037;-77
2022/03/25 06:57:05;;;;;;;31.15;12.88;;;;;;;7.71;58.78;101508.88;5054317;28;20035;-78
2022/03/25 06:59:31;;;;;;;36.25;14.05;;;;;;;7.81;57.40;101520.34;5053331;28;20037;-77
2022/03/25 07:01:56;;;;;;;29.70;12.15;;;;;;;8.12;57.01;101512.56;5053887;28;20021;-78
2022/03/25 07:04:22;;;;;;;31.33;13.82;;;;;;;8.23;56.24;101516.81;5053092;28;20064;-77
2022/03/25 07:06:49;;;;;;;34.28;13.65;;;;;;;8.09;55.17;101528.16;5053180;28;20036;-78
2022/03/25 07:09:15;;;;;;;35.17;13.55;;;;;;;7.98;54.93;101534.66;5053601;28;20036;-78
2022/03/25 07:11:40;;;;;;;33.88;14.18;;;;;;;8.12;54.58;101538.56;5053834;28;20033;-77
2022/03/25 07:14:06;;;;;;;33.35;13.48;;;;;;;8.08;55.44;101531.84;5056979;28;20036;-77
2022/03/25 07:16:32;;;;;;;36.00;12.75;;;;;;;8.23;55.15;101541.00;5056919;28;20032;-76
2022/03/25 07:18:59;;;;;;;30.65;13.25;;;;;;;8.25;55.11;101533.59;5056803;28;20043;-77
2022/03/25 07:21:25;;;;;;;35.60;13.65;;;;;;;8.21;55.17;101532.25;5056848;28;20032;-77
2022/03/25 07:23:50;;;;;;;36.10;12.70;;;;;;;8.72;54.23;101535.78;5057212;28;20375;-78
2022/03/25 07:26:17;;;;;;;31.52;13.00;;;;;;;8.73;55.35;101540.13;5057807;28;20033;-77
2022/03/25 07:28:42;;;;;;;;;;;;;;;8.67;54.28;101539.78;5039666;28;20035;-81
2022/03/25 07:31:07;;;;;;;33.78;12.77;;;;;;;9.05;54.46;101532.94;5057286;28;20015;-78
2022/03/25 07:33:33;;;;;;;31.90;12.90;;;;;;;9.16;52.80;101541.66;5057395;28;20086;-78
2022/03/25 07:36:00;;;;;;;37.83;13.68;;;;;;;9.12;53.81;101537.66;5056986;28;20025;-77
2022/03/25 07:38:27;;;;;;;31.45;12.85;;;;;;;9.40;53.43;101537.13;5056428;28;20044;-76
2022/03/25 07:40:52;;;;;;;28.20;12.95;;;;;;;9.69;50.75;101552.69;5056237;28;20072;-77
2022/03/25 07:43:18;;;;;;;29.67;11.93;;;;;;;9.88;52.72;101545.25;5056968;28;20114;-77
2022/03/25 07:45:43;;;;;;;32.77;12.87;;;;;;;9.93;50.69;101554.50;5056090;28;20129;-77
2022/03/25 07:48:08;;;;;;;29.83;12.80;;;;;;;10.05;48.96;101558.47;5055827;28;20255;-78
2022/03/25 07:50:34;;;;;;;28.33;12.23;;;;;;;10.08;49.19;101563.53;5038492;28;20029;-77
2022/03/25 07:52:59;;;;;;;30.10;12.30;;;;;;;10.49;48.09;101565.25;5057611;28;20351;-77
2022/03/25 07:55:25;;;;;;;28.27;10.93;;;;;;;10.66;47.46;101562.28;5056399;28;20306;-76
2022/03/25 07:57:50;;;;;;;36.17;12.50;;;;;;;10.58;48.07;101561.47;5056149;28;20024;-77
2022/03/25 08:00:16;;;;;;;28.27;11.93;;;;;;;10.65;47.85;101568.69;5056194;28;20463;-77
2022/03/25 08:02:47;;;;;;;24.67;10.68;;;;;;;10.72;47.68;101575.06;5038256;28;20523;-76
2022/03/25 08:05:14;;;;;;;34.38;12.45;;;;;;;10.96;46.63;101571.34;5055703;28;20053;-77
2022/03/25 08:07:52;;;;;;;28.48;11.95;;;;;;;11.00;46.78;101579.91;5056005;28;20035;-77
2022/03/25 08:10:27;;;;;;;25.40;10.75;;;;;;;11.12;47.69;101573.91;5055876;28;20113;-76
2022/03/25 08:12:54;;;;;;;25.67;11.43;;;;;;;11.32;46.19;101576.13;5055922;28;20048;-76
2022/03/25 08:15:20;;;;;;;26.60;10.90;;;;;;;11.28;45.90;101575.66;5056138;28;20409;-77
2022/03/25 08:17:57;;;;;;;23.92;9.80;;;;;;;11.65;46.54;101580.19;5055728;28;20459;-76
2022/03/25 08:20:25;;;;;;;24.17;10.70;;;;;;;11.85;44.81;101580.53;5055773;28;20039;-77
2022/03/25 08:22:50;;;;;;;27.92;11.02;;;;;;;11.60;45.34;101582.63;5055032;28;20025;-76
2022/03/25 08:28:01;;;;;;;25.73;10.30;;;;;;;11.96;43.98;101582.78;5055458;28;20060;-76
2022/03/25 08:30:31;;;;;;;27.25;10.25;;;;;;;11.79;44.20;101589.41;5055555;28;20383;-76
2022/03/25 08:32:57;;;;;;;29.45;11.45;;;;;;;11.84;44.57;101600.47;5055121;28;20374;-78
2022/03/25 08:35:24;;;;;;;24.77;9.80;;;;;;;12.11;43.76;101593.59;5055083;28;20041;-79
2022/03/25 08:37:49;;;;;;;26.42;10.48;;;;;;;12.00;43.99;101596.78;5055324;28;20039;-77
2022/03/25 08:40:15;;;;;;;25.47;9.60;;;;;;;12.32;42.93;101598.25;5055244;28;20037;-76
2022/03/25 08:42:40;;;;;;;21.97;9.63;;;;;;;12.30;44.35;101600.31;5055139;28;20231;-77
2022/03/25 08:45:06;;;;;;;22.53;9.83;;;;;;;12.50;42.38;101607.66;5055229;28;20025;-76
2022/03/25 08:47:31;;;;;;;34.97;11.82;;;;;;;12.57;42.25;101612.28;5055536;28;20260;-78
2022/03/25 08:49:56;;;;;;;24.65;10.27;;;;;;;12.58;42.67;101600.44;5058327;28;20036;-78
2022/03/25 08:52:22;;;;;;;25.90;9.95;;;;;;;12.58;42.35;101605.84;5055354;28;20029;-77
2022/03/25 08:54:48;;;;;;;22.20;9.95;;;;;;;12.84;42.51;101615.13;5054807;28;20041;-76
2022/03/25 08:57:13;;;;;;;21.33;9.65;;;;;;;12.63;41.71;101611.53;5055256;28;20036;-76
2022/03/25 08:59:39;;;;;;;25.17;10.97;;;;;;;12.42;42.12;101613.16;5037367;28;20033;-77
2022/03/25 09:02:04;;;;;;;25.00;9.97;;;;;;;12.53;42.35;101611.84;5054635;28;20059;-76
2022/03/25 09:04:30;;;;;;;30.87;9.77;;;;;;;12.88;41.36;101615.59;5054727;28;20299;-77
2022/03/25 09:06:55;;;;;;;23.02;10.98;;;;;;;13.01;40.85;101607.63;5054373;28;20021;-76
2022/03/25 09:09:21;;;;;;;24.45;9.73;;;;;;;13.11;40.77;101610.81;5036951;28;20487;-77
2022/03/25 09:11:47;;;;;;;26.55;9.40;;;;;;;13.14;41.18;101607.75;5037043;28;20593;-76
2022/03/25 09:14:14;;;;;;;24.58;10.07;;;;;;;13.24;40.55;101614.75;5055096;28;20036;-77
2022/03/25 09:16:40;;;;;;;26.48;10.13;;;;;;;13.41;40.24;101618.88;5054608;28;20057;-77
2022/03/25 09:19:05;;;;;;;;;;;;;;;13.33;40.40;101616.28;5055395;28;20112;-77
2022/03/25 09:21:30;;;;;;;27.33;11.47;;;;;;;13.43;39.94;101622.22;5054692;28;20380;-78
2022/03/25 09:23:56;;;;;;;23.93;9.83;;;;;;;13.51;40.51;101622.91;5054375;28;20720;-76
2022/03/25 09:26:21;;;;;;;27.13;9.80;;;;;;;13.77;39.85;101621.47;5055671;28;20055;-77
2022/03/25 09:28:47;;;;;;;23.42;9.40;;;;;;;13.72;38.96;101618.50;5054343;28;20386;-79
2022/03/25 09:31:12;;;;;;;24.98;10.02;;;;;;;13.86;38.72;101622.97;5054900;28;20086;-78
2022/03/25 09:33:37;;;;;;;19.27;8.87;;;;;;;13.82;37.48;101624.41;5040489;28;20482;-78
2022/03/25 09:36:03;;;;;;;21.43;10.20;;;;;;;13.89;38.17;101628.00;5061168;28;20260;-78
2022/03/25 09:38:28;;;;;;;22.52;9.55;;;;;;;14.08;37.66;101630.03;5054496;28;20350;-77
2022/03/25 09:40:56;;;;;;;30.50;9.60;;;;;;;14.25;36.92;101625.13;5054570;28;20443;-77
2022/03/25 09:43:22;;;;;;;28.27;9.65;;;;;;;14.43;37.03;101620.03;5036046;28;20334;-77
2022/03/25 09:45:47;;;;;;;20.17;9.35;;;;;;;14.47;36.01;101623.19;5054172;28;20518;-77
2022/03/25 09:48:13;;;;;;;18.60;8.10;;;;;;;14.56;36.17;101620.09;5053898;28;20029;-78
2022/03/25 09:50:40;;;;;;;21.85;8.60;;;;;;;14.43;34.97;101621.91;5036576;28;20020;-78
2022/03/25 09:53:06;;;;;;;20.95;9.13;;;;;;;14.70;34.13;101625.56;5037357;28;20437;-79
2022/03/25 09:55:34;;;;;;;17.13;7.50;;;;;;;14.74;34.36;101624.97;5055619;28;20044;-77
2022/03/25 09:58:00;;;;;;;18.65;7.03;;;;;;;14.96;33.00;101619.41;5036596;28;20450;-78
2022/03/25 10:00:25;;;;;;;22.53;6.83;;;;;;;14.77;34.37;101621.00;5037680;28;20041;-78
2022/03/25 10:02:50;;;;;;;15.48;7.15;;;;;;;15.01;32.62;101623.19;5057347;28;20256;-79
2022/03/25 10:05:21;;;;;;;17.65;7.30;;;;;;;14.95;32.98;101613.13;5056150;28;20045;-77
2022/03/25 10:07:54;;;;;;;17.35;7.32;;;;;;;15.33;33.01;101618.84;5056441;28;20033;-77
2022/03/25 10:10:22;;;;;;;18.73;7.25;;;;;;;15.33;32.71;101621.56;5035757;28;20089;-77
2022/03/25 10:13:00;;;;;;;15.25;7.03;;;;;;;15.14;33.84;101623.22;5036187;28;20041;-77
2022/03/25 10:15:28;;;;;;;17.88;7.80;;;;;;;15.18;33.67;101624.47;5053849;28;20064;-77
2022/03/25 10:17:58;;;;;;;18.27;7.47;;;;;;;15.00;35.12;101617.97;5053636;28;20039;-77
2022/03/25 10:20:39;;;;;;;18.63;8.32;;;;;;;15.11;34.48;101617.34;5053558;28;20470;-78
2022/03/25 10:23:14;;;;;;;15.77;7.03;;;;;;;15.37;34.72;101617.41;5053756;28;20079;-78
2022/03/25 10:25:40;;;;;;;16.88;7.57;;;;;;;15.52;33.97;101612.59;5053717;28;20116;-79
2022/03/25 10:28:18;;;;;;;16.47;7.07;;;;;;;15.40;34.63;101622.44;5055529;28;20064;-78
2022/03/25 10:30:44;;;;;;;16.40;7.55;;;;;;;15.25;35.27;101617.16;5056513;28;20028;-77
2022/03/25 10:33:10;;;;;;;19.90;7.40;;;;;;;15.19;35.44;101611.75;5055662;28;20551;-77
2022/03/25 10:36:04;;;;;;;19.17;6.63;;;;;;;15.53;35.07;101611.56;5055610;28;20494;-78
2022/03/25 10:38:41;;;;;;;18.25;7.55;;;;;;;15.41;35.52;101617.81;5055688;28;20378;-78
2022/03/25 10:41:07;;;;;;;16.05;6.80;;;;;;;15.61;35.03;101616.81;5053545;28;20112;-77
2022/03/25 10:43:33;;;;;;;16.15;7.25;;;;;;;15.84;35.11;101612.84;5053604;28;20446;-77
2022/03/25 10:45:58;;;;;;;22.55;7.80;;;;;;;15.80;35.26;101608.84;5053757;28;20064;-77
2022/03/25 10:48:26;;;;;;;22.60;8.07;;;;;;;15.58;35.91;101611.81;5053591;28;20107;-76
2022/03/25 10:51:08;;;;;;;15.77;6.90;;;;;;;15.68;35.78;101605.94;5052744;28;20056;-76
2022/03/25 10:53:36;;;;;;;17.02;7.70;;;;;;;15.69;35.67;101609.50;5053443;28;20102;-77
2022/03/25 10:56:07;;;;;;;16.25;6.47;;;;;;;15.81;36.19;101605.94;5052822;28;20029;-77
2022/03/25 10:58:37;;;;;;;16.88;6.97;;;;;;;15.93;35.66;101606.16;5053123;28;20037;-80
2022/03/25 11:01:06;;;;;;;18.33;7.45;;;;;;;15.99;35.22;101602.56;5053352;28;20035;-77
2022/03/25 11:03:32;;;;;;;14.77;6.70;;;;;;;15.80;35.94;101595.25;5052788;28;20033;-78
2022/03/25 11:05:58;;;;;;;17.33;7.00;;;;;;;16.02;35.72;101604.88;5052862;28;20036;-78
2022/03/25 11:08:23;;;;;;;14.88;7.38;;;;;;;16.35;35.15;101601.22;5053024;28;20453;-78
2022/03/25 11:10:49;;;;;;;14.73;6.68;;;;;;;16.24;34.71;101603.56;5052826;28;20029;-78
2022/03/25 11:13:14;;;;;;;;;;;;;;;16.20;35.13;101605.03;5053528;28;20036;-77
2022/03/25 11:15:40;;;;;;;16.40;7.77;;;;;;;16.38;34.72;101603.50;5052600;28;19954;-77
2022/03/25 11:18:06;;;;;;;26.42;8.30;;;;;;;15.70;36.23;101598.44;5053782;28;20251;-76
2022/03/25 11:20:32;;;;;;;19.35;7.97;;;;;;;15.89;35.61;101594.84;5035016;28;20041;-77